This is the latest recevied weather packets stored in our database for station/object N2WH. If no packets are shown the sender has not sent any weather packets the latest 1 day(s).
| Time | Temp. | Humidity | Pressure | Rain* | Wind** | Luminosity | Snow |
|---|---|---|---|---|---|---|---|
| 1778035238 | 21.11° C | 59% | 1011.2 hPa | 0 mm | 0 m/s | 0 W/m² | - |
| 1778034934 | 21.11° C | 57% | 1011.2 hPa | 0 mm | 0.89 m/s, 170° | 0 W/m² | - |
| 1778034635 | 21.11° C | 56% | 1011.2 hPa | 0 mm | 0.89 m/s, 257° | 0 W/m² | - |
| 1778034329 | 21.11° C | 56% | 1011 hPa | 0 mm | 0.45 m/s, 161° | 0 W/m² | - |
| 1778034027 | 21.11° C | 55% | 1011.2 hPa | 0 mm | 0.45 m/s, 127° | 0 W/m² | - |
| 1778033724 | 21.67° C | 54% | 1011.2 hPa | 0 mm | 0.89 m/s, 232° | 0 W/m² | - |
| 1778033421 | 21.67° C | 53% | 1011.1 hPa | 0 mm | 0.45 m/s, 268° | 0 W/m² | - |
| 1778033119 | 21.67° C | 52% | 1011.1 hPa | 0 mm | 0.45 m/s, 170° | 0 W/m² | - |
| 1778032816 | 21.67° C | 51% | 1011.1 hPa | 0 mm | 0.45 m/s, 169° | 0 W/m² | - |
| 1778032513 | 22.22° C | 50% | 1010.9 hPa | 0 mm | 0.45 m/s, 131° | 0 W/m² | - |
| 1778032210 | 22.22° C | 50% | 1010.8 hPa | 0 mm | 1.34 m/s, 242° | 0 W/m² | - |
| 1778031908 | 22.22° C | 49% | 1010.9 hPa | 0 mm | 0.45 m/s, 178° | 0 W/m² | - |
| 1778031603 | 22.22° C | 49% | 1011 hPa | 0 mm | 1.34 m/s, 256° | 0 W/m² | - |
| 1778031301 | 22.22° C | 49% | 1010.9 hPa | 0 mm | 0 m/s | 0 W/m² | - |
| 1778030997 | 22.22° C | 48% | 1010.8 hPa | 0 mm | 0.45 m/s, 160° | 0 W/m² | - |
| 1778030694 | 22.78° C | 48% | 1010.9 hPa | 0 mm | 0 m/s | 0 W/m² | - |
| 1778030391 | 22.78° C | 47% | 1010.6 hPa | 0 mm | 0.45 m/s, 160° | 0 W/m² | - |
| 1778030088 | 22.78° C | 47% | 1010.6 hPa | 0 mm | 0.89 m/s, 226° | 0 W/m² | - |
| 1778029785 | 22.78° C | 47% | 1010.6 hPa | 0 mm | 0.45 m/s, 112° | 0 W/m² | - |
| 1778029484 | 22.78° C | 47% | 1010.5 hPa | 0 mm | 0.45 m/s, 140° | 0 W/m² | - |
| 1778029179 | 22.78° C | 47% | 1010.4 hPa | 0 mm | 0.89 m/s, 215° | 0 W/m² | - |
| 1778028878 | 22.78° C | 46% | 1010.5 hPa | 0 mm | 0.45 m/s, 160° | 0 W/m² | - |
| 1778028572 | 23.33° C | 45% | 1010.4 hPa | 0 mm | 0.89 m/s, 151° | 0 W/m² | - |
| 1778028271 | 23.33° C | 44% | 1010.4 hPa | 0 mm | 1.34 m/s, 208° | 0 W/m² | - |
| 1778027966 | 23.33° C | 45% | 1010.2 hPa | 0 mm | 0 m/s | 0 W/m² | - |
* Rain latest hour (hover to see other rain measurements)
** Current wind speed in m/s (hover to see current wind gust speed)